sensor_id;sensor_type;location;lat;lon;timestamp;temperature;humidity
51733;DHT22;39139;53.144;6.244;2022-08-30T00:00:47;13.10;99.90
51733;DHT22;39139;53.144;6.244;2022-08-30T00:03:35;13.10;99.90
51733;DHT22;39139;53.144;6.244;2022-08-30T00:06:03;13.10;99.90
51733;DHT22;39139;53.144;6.244;2022-08-30T00:08:31;13.00;99.90
51733;DHT22;39139;53.144;6.244;2022-08-30T00:10:57;13.00;99.90
51733;DHT22;39139;53.144;6.244;2022-08-30T00:13:23;13.00;99.90
51733;DHT22;39139;53.144;6.244;2022-08-30T00:15:48;13.00;99.90
51733;DHT22;39139;53.144;6.244;2022-08-30T00:18:16;13.00;99.90
51733;DHT22;39139;53.144;6.244;2022-08-30T00:20:43;13.00;99.90
51733;DHT22;39139;53.144;6.244;2022-08-30T00:23:10;13.10;99.90
51733;DHT22;39139;53.144;6.244;2022-08-30T00:25:35;13.10;99.90
51733;DHT22;39139;53.144;6.244;2022-08-30T00:28:01;13.50;99.90
51733;DHT22;39139;53.144;6.244;2022-08-30T00:30:30;13.10;99.90
51733;DHT22;39139;53.144;6.244;2022-08-30T00:32:56;13.00;99.90
51733;DHT22;39139;53.144;6.244;2022-08-30T00:35:23;13.00;99.90
51733;DHT22;39139;53.144;6.244;2022-08-30T00:37:49;13.40;99.90
51733;DHT22;39139;53.144;6.244;2022-08-30T00:40:16;13.10;99.90
51733;DHT22;39139;53.144;6.244;2022-08-30T00:42:44;13.10;99.90
51733;DHT22;39139;53.144;6.244;2022-08-30T00:45:15;13.10;99.90
51733;DHT22;39139;53.144;6.244;2022-08-30T00:47:41;13.10;99.90
51733;DHT22;39139;53.144;6.244;2022-08-30T00:50:09;13.20;99.90
51733;DHT22;39139;53.144;6.244;2022-08-30T00:52:37;13.20;99.90
51733;DHT22;39139;53.144;6.244;2022-08-30T00:55:06;13.10;99.90
51733;DHT22;39139;53.144;6.244;2022-08-30T00:57:31;13.20;99.90
51733;DHT22;39139;53.144;6.244;2022-08-30T01:00:01;13.20;99.90
51733;DHT22;39139;53.144;6.244;2022-08-30T01:02:27;13.20;99.90
51733;DHT22;39139;53.144;6.244;2022-08-30T01:04:55;13.30;99.90
51733;DHT22;39139;53.144;6.244;2022-08-30T01:07:22;13.30;99.90
51733;DHT22;39139;53.144;6.244;2022-08-30T01:09:48;13.30;99.90
51733;DHT22;39139;53.144;6.244;2022-08-30T01:12:14;13.20;99.90
51733;DHT22;39139;53.144;6.244;2022-08-30T01:14:40;13.30;99.90
51733;DHT22;39139;53.144;6.244;2022-08-30T01:17:06;13.40;99.90
51733;DHT22;39139;53.144;6.244;2022-08-30T01:19:53;13.20;99.90
51733;DHT22;39139;53.144;6.244;2022-08-30T01:22:29;13.10;99.90
51733;DHT22;39139;53.144;6.244;2022-08-30T01:24:58;13.10;99.90
51733;DHT22;39139;53.144;6.244;2022-08-30T01:27:26;13.00;99.90
51733;DHT22;39139;53.144;6.244;2022-08-30T01:29:53;13.00;99.90
51733;DHT22;39139;53.144;6.244;2022-08-30T01:32:23;13.10;99.90
51733;DHT22;39139;53.144;6.244;2022-08-30T01:34:49;13.00;99.90
51733;DHT22;39139;53.144;6.244;2022-08-30T01:37:19;13.10;99.90
51733;DHT22;39139;53.144;6.244;2022-08-30T01:39:46;13.10;99.90
51733;DHT22;39139;53.144;6.244;2022-08-30T01:42:14;13.10;99.90
51733;DHT22;39139;53.144;6.244;2022-08-30T01:44:42;13.10;99.90
51733;DHT22;39139;53.144;6.244;2022-08-30T01:47:08;13.10;99.90
51733;DHT22;39139;53.144;6.244;2022-08-30T01:49:34;13.40;99.90
51733;DHT22;39139;53.144;6.244;2022-08-30T01:51:59;13.20;99.90
51733;DHT22;39139;53.144;6.244;2022-08-30T01:54:25;13.20;99.90
51733;DHT22;39139;53.144;6.244;2022-08-30T01:56:51;13.20;99.90
51733;DHT22;39139;53.144;6.244;2022-08-30T01:59:16;13.20;99.90
51733;DHT22;39139;53.144;6.244;2022-08-30T02:01:42;14.10;99.90
51733;DHT22;39139;53.144;6.244;2022-08-30T02:04:08;13.30;99.90
51733;DHT22;39139;53.144;6.244;2022-08-30T02:06:37;13.40;99.90
51733;DHT22;39139;53.144;6.244;2022-08-30T02:09:03;14.50;99.90
51733;DHT22;39139;53.144;6.244;2022-08-30T02:11:29;13.30;99.90
51733;DHT22;39139;53.144;6.244;2022-08-30T02:13:55;13.40;99.90
51733;DHT22;39139;53.144;6.244;2022-08-30T02:16:23;13.30;99.90
51733;DHT22;39139;53.144;6.244;2022-08-30T02:18:51;13.40;99.90
51733;DHT22;39139;53.144;6.244;2022-08-30T02:21:17;13.70;99.90
51733;DHT22;39139;53.144;6.244;2022-08-30T02:23:42;13.40;99.90
51733;DHT22;39139;53.144;6.244;2022-08-30T02:26:09;13.30;99.90
51733;DHT22;39139;53.144;6.244;2022-08-30T02:28:35;14.00;99.90
51733;DHT22;39139;53.144;6.244;2022-08-30T02:31:00;13.40;99.90
51733;DHT22;39139;53.144;6.244;2022-08-30T02:33:26;13.50;99.90
51733;DHT22;39139;53.144;6.244;2022-08-30T02:35:52;13.40;99.90
51733;DHT22;39139;53.144;6.244;2022-08-30T02:38:18;13.40;99.90
51733;DHT22;39139;53.144;6.244;2022-08-30T02:40:44;13.40;99.90
51733;DHT22;39139;53.144;6.244;2022-08-30T02:43:10;13.30;99.90
51733;DHT22;39139;53.144;6.244;2022-08-30T02:45:36;13.30;99.90
51733;DHT22;39139;53.144;6.244;2022-08-30T02:48:02;13.20;99.90
51733;DHT22;39139;53.144;6.244;2022-08-30T02:50:28;13.10;99.90
51733;DHT22;39139;53.144;6.244;2022-08-30T02:52:56;13.10;99.90
51733;DHT22;39139;53.144;6.244;2022-08-30T02:55:22;13.40;99.90
51733;DHT22;39139;53.144;6.244;2022-08-30T02:57:47;13.00;99.90
51733;DHT22;39139;53.144;6.244;2022-08-30T03:00:15;13.00;99.90
51733;DHT22;39139;53.144;6.244;2022-08-30T03:02:42;12.90;99.90
51733;DHT22;39139;53.144;6.244;2022-08-30T03:05:09;13.00;99.90
51733;DHT22;39139;53.144;6.244;2022-08-30T03:07:35;12.90;99.90
51733;DHT22;39139;53.144;6.244;2022-08-30T03:10:01;12.80;99.90
51733;DHT22;39139;53.144;6.244;2022-08-30T03:12:26;12.80;99.90
51733;DHT22;39139;53.144;6.244;2022-08-30T03:14:52;12.80;99.90
51733;DHT22;39139;53.144;6.244;2022-08-30T03:17:18;12.80;99.90
51733;DHT22;39139;53.144;6.244;2022-08-30T03:19:44;12.80;99.90
51733;DHT22;39139;53.144;6.244;2022-08-30T03:22:11;12.70;99.90
51733;DHT22;39139;53.144;6.244;2022-08-30T03:24:36;12.70;99.90
51733;DHT22;39139;53.144;6.244;2022-08-30T03:27:02;12.60;99.90
51733;DHT22;39139;53.144;6.244;2022-08-30T03:29:28;12.60;99.90
51733;DHT22;39139;53.144;6.244;2022-08-30T03:31:57;12.60;99.90
51733;DHT22;39139;53.144;6.244;2022-08-30T03:34:24;12.60;99.90
51733;DHT22;39139;53.144;6.244;2022-08-30T03:36:52;12.50;99.90
51733;DHT22;39139;53.144;6.244;2022-08-30T03:39:18;12.50;99.90
51733;DHT22;39139;53.144;6.244;2022-08-30T03:41:44;12.50;99.90
51733;DHT22;39139;53.144;6.244;2022-08-30T03:44:10;12.50;99.90
51733;DHT22;39139;53.144;6.244;2022-08-30T03:46:36;12.50;99.90
51733;DHT22;39139;53.144;6.244;2022-08-30T03:49:03;12.50;99.90
51733;DHT22;39139;53.144;6.244;2022-08-30T03:51:28;12.50;99.90
51733;DHT22;39139;53.144;6.244;2022-08-30T03:53:54;12.40;99.90
51733;DHT22;39139;53.144;6.244;2022-08-30T03:56:19;12.30;99.90
51733;DHT22;39139;53.144;6.244;2022-08-30T03:58:45;12.20;99.90
51733;DHT22;39139;53.144;6.244;2022-08-30T04:01:11;12.30;99.90
51733;DHT22;39139;53.144;6.244;2022-08-30T04:03:37;12.20;99.90
51733;DHT22;39139;53.144;6.244;2022-08-30T04:06:03;12.20;99.90
51733;DHT22;39139;53.144;6.244;2022-08-30T04:08:29;12.20;99.90
51733;DHT22;39139;53.144;6.244;2022-08-30T04:10:54;13.20;99.90
51733;DHT22;39139;53.144;6.244;2022-08-30T04:13:21;12.20;99.90
51733;DHT22;39139;53.144;6.244;2022-08-30T04:15:48;12.20;99.90
51733;DHT22;39139;53.144;6.244;2022-08-30T04:18:13;12.20;99.90
51733;DHT22;39139;53.144;6.244;2022-08-30T04:20:40;12.20;99.90
51733;DHT22;39139;53.144;6.244;2022-08-30T04:23:06;12.10;99.90
51733;DHT22;39139;53.144;6.244;2022-08-30T04:25:36;12.20;99.90
51733;DHT22;39139;53.144;6.244;2022-08-30T04:28:03;12.10;99.90
51733;DHT22;39139;53.144;6.244;2022-08-30T04:30:29;12.10;99.90
51733;DHT22;39139;53.144;6.244;2022-08-30T04:32:55;12.10;99.90
51733;DHT22;39139;53.144;6.244;2022-08-30T04:35:21;12.00;99.90
51733;DHT22;39139;53.144;6.244;2022-08-30T04:37:47;12.00;99.90
51733;DHT22;39139;53.144;6.244;2022-08-30T04:40:13;12.10;99.90
51733;DHT22;39139;53.144;6.244;2022-08-30T04:42:39;12.00;99.90
51733;DHT22;39139;53.144;6.244;2022-08-30T04:45:11;12.00;99.90
51733;DHT22;39139;53.144;6.244;2022-08-30T04:47:37;12.00;99.90
51733;DHT22;39139;53.144;6.244;2022-08-30T04:50:07;12.00;99.90
51733;DHT22;39139;53.144;6.244;2022-08-30T04:52:33;11.90;99.90
51733;DHT22;39139;53.144;6.244;2022-08-30T04:54:59;12.00;99.90
51733;DHT22;39139;53.144;6.244;2022-08-30T04:57:25;11.90;99.90
51733;DHT22;39139;53.144;6.244;2022-08-30T04:59:51;11.90;99.90
51733;DHT22;39139;53.144;6.244;2022-08-30T05:02:17;12.00;99.90
51733;DHT22;39139;53.144;6.244;2022-08-30T05:04:43;11.90;99.90
51733;DHT22;39139;53.144;6.244;2022-08-30T05:07:29;11.90;99.90
51733;DHT22;39139;53.144;6.244;2022-08-30T05:09:54;11.90;99.90
51733;DHT22;39139;53.144;6.244;2022-08-30T05:12:20;12.10;99.90
51733;DHT22;39139;53.144;6.244;2022-08-30T05:14:46;11.90;99.90
51733;DHT22;39139;53.144;6.244;2022-08-30T05:17:11;12.20;99.90
51733;DHT22;39139;53.144;6.244;2022-08-30T05:19:37;12.00;99.90
51733;DHT22;39139;53.144;6.244;2022-08-30T05:22:03;11.90;99.90
51733;DHT22;39139;53.144;6.244;2022-08-30T05:24:28;12.00;99.90
51733;DHT22;39139;53.144;6.244;2022-08-30T05:26:54;12.00;99.90
51733;DHT22;39139;53.144;6.244;2022-08-30T05:29:19;12.90;99.90
51733;DHT22;39139;53.144;6.244;2022-08-30T05:31:45;12.00;99.90
51733;DHT22;39139;53.144;6.244;2022-08-30T05:34:11;12.10;99.90
51733;DHT22;39139;53.144;6.244;2022-08-30T05:36:37;12.10;99.90
51733;DHT22;39139;53.144;6.244;2022-08-30T05:39:05;12.70;99.90
51733;DHT22;39139;53.144;6.244;2022-08-30T05:41:31;12.30;99.90
51733;DHT22;39139;53.144;6.244;2022-08-30T05:43:58;12.20;99.90
51733;DHT22;39139;53.144;6.244;2022-08-30T05:46:24;12.20;99.90
51733;DHT22;39139;53.144;6.244;2022-08-30T05:48:54;12.30;99.90
51733;DHT22;39139;53.144;6.244;2022-08-30T05:51:22;12.40;99.90
51733;DHT22;39139;53.144;6.244;2022-08-30T05:53:49;12.40;99.90
51733;DHT22;39139;53.144;6.244;2022-08-30T05:56:18;12.50;99.90
51733;DHT22;39139;53.144;6.244;2022-08-30T05:58:44;12.50;99.90
51733;DHT22;39139;53.144;6.244;2022-08-30T06:04:14;12.60;99.90
51733;DHT22;39139;53.144;6.244;2022-08-30T06:06:41;12.80;99.90
51733;DHT22;39139;53.144;6.244;2022-08-30T06:09:09;12.80;99.90
51733;DHT22;39139;53.144;6.244;2022-08-30T06:11:35;12.90;99.90
51733;DHT22;39139;53.144;6.244;2022-08-30T06:14:02;13.00;99.90
51733;DHT22;39139;53.144;6.244;2022-08-30T06:16:28;13.10;99.90
51733;DHT22;39139;53.144;6.244;2022-08-30T06:18:56;13.20;99.90
51733;DHT22;39139;53.144;6.244;2022-08-30T06:21:28;13.30;99.90
51733;DHT22;39139;53.144;6.244;2022-08-30T06:23:55;13.50;99.90
51733;DHT22;39139;53.144;6.244;2022-08-30T06:26:21;13.70;99.90
51733;DHT22;39139;53.144;6.244;2022-08-30T06:28:47;13.60;99.90
51733;DHT22;39139;53.144;6.244;2022-08-30T06:31:15;13.70;99.90
51733;DHT22;39139;53.144;6.244;2022-08-30T06:33:41;13.90;99.90
51733;DHT22;39139;53.144;6.244;2022-08-30T06:36:10;13.90;99.90
51733;DHT22;39139;53.144;6.244;2022-08-30T06:38:36;13.90;99.90
51733;DHT22;39139;53.144;6.244;2022-08-30T06:41:06;14.00;99.90
51733;DHT22;39139;53.144;6.244;2022-08-30T06:43:32;14.30;99.90
51733;DHT22;39139;53.144;6.244;2022-08-30T06:46:05;14.10;99.90
51733;DHT22;39139;53.144;6.244;2022-08-30T06:48:31;14.20;99.90
51733;DHT22;39139;53.144;6.244;2022-08-30T06:50:57;14.20;99.90
51733;DHT22;39139;53.144;6.244;2022-08-30T06:53:24;14.30;99.90
51733;DHT22;39139;53.144;6.244;2022-08-30T06:56:06;14.40;99.90
51733;DHT22;39139;53.144;6.244;2022-08-30T06:58:33;14.40;99.90
51733;DHT22;39139;53.144;6.244;2022-08-30T07:00:59;14.60;99.90
51733;DHT22;39139;53.144;6.244;2022-08-30T07:03:25;14.60;99.90
51733;DHT22;39139;53.144;6.244;2022-08-30T07:05:54;14.70;99.90
51733;DHT22;39139;53.144;6.244;2022-08-30T07:08:20;14.80;99.90
51733;DHT22;39139;53.144;6.244;2022-08-30T07:10:48;14.80;99.90
51733;DHT22;39139;53.144;6.244;2022-08-30T07:13:14;14.90;99.90
51733;DHT22;39139;53.144;6.244;2022-08-30T07:15:41;15.00;99.90
51733;DHT22;39139;53.144;6.244;2022-08-30T07:18:09;15.20;99.90
51733;DHT22;39139;53.144;6.244;2022-08-30T07:20:53;15.20;99.90
51733;DHT22;39139;53.144;6.244;2022-08-30T07:23:18;15.30;99.90
51733;DHT22;39139;53.144;6.244;2022-08-30T07:25:44;15.50;99.90
51733;DHT22;39139;53.144;6.244;2022-08-30T07:28:10;15.60;99.90
51733;DHT22;39139;53.144;6.244;2022-08-30T07:30:36;15.50;99.90
51733;DHT22;39139;53.144;6.244;2022-08-30T07:33:03;15.60;99.90
51733;DHT22;39139;53.144;6.244;2022-08-30T07:35:29;15.60;99.90
51733;DHT22;39139;53.144;6.244;2022-08-30T07:37:56;15.70;99.90
51733;DHT22;39139;53.144;6.244;2022-08-30T07:40:22;15.80;99.90
51733;DHT22;39139;53.144;6.244;2022-08-30T07:42:47;15.90;99.90
51733;DHT22;39139;53.144;6.244;2022-08-30T07:45:13;16.10;99.90
51733;DHT22;39139;53.144;6.244;2022-08-30T07:47:39;16.60;99.90
51733;DHT22;39139;53.144;6.244;2022-08-30T07:50:05;16.10;99.90
51733;DHT22;39139;53.144;6.244;2022-08-30T07:52:32;16.20;99.90
51733;DHT22;39139;53.144;6.244;2022-08-30T07:54:58;16.40;99.90
51733;DHT22;39139;53.144;6.244;2022-08-30T07:57:25;16.40;99.90
51733;DHT22;39139;53.144;6.244;2022-08-30T07:59:51;16.50;99.90
51733;DHT22;39139;53.144;6.244;2022-08-30T08:02:17;16.60;99.90
51733;DHT22;39139;53.144;6.244;2022-08-30T08:04:43;16.60;99.90
51733;DHT22;39139;53.144;6.244;2022-08-30T08:07:09;16.80;99.90
51733;DHT22;39139;53.144;6.244;2022-08-30T08:09:36;16.80;99.90
51733;DHT22;39139;53.144;6.244;2022-08-30T08:12:06;17.50;99.90
51733;DHT22;39139;53.144;6.244;2022-08-30T08:14:32;17.00;99.90
51733;DHT22;39139;53.144;6.244;2022-08-30T08:16:58;17.10;99.90
51733;DHT22;39139;53.144;6.244;2022-08-30T08:19:24;17.20;99.90
51733;DHT22;39139;53.144;6.244;2022-08-30T08:21:50;17.30;99.90
51733;DHT22;39139;53.144;6.244;2022-08-30T08:24:21;17.20;99.90
51733;DHT22;39139;53.144;6.244;2022-08-30T08:26:47;17.40;99.90
51733;DHT22;39139;53.144;6.244;2022-08-30T08:29:13;17.60;99.90
51733;DHT22;39139;53.144;6.244;2022-08-30T08:31:39;17.70;99.90
51733;DHT22;39139;53.144;6.244;2022-08-30T08:34:06;18.00;99.90
51733;DHT22;39139;53.144;6.244;2022-08-30T08:36:41;18.10;99.90
51733;DHT22;39139;53.144;6.244;2022-08-30T08:39:08;18.30;99.90
51733;DHT22;39139;53.144;6.244;2022-08-30T08:44:49;18.60;99.90
51733;DHT22;39139;53.144;6.244;2022-08-30T08:50:15;19.00;99.90
51733;DHT22;39139;53.144;6.244;2022-08-30T08:52:52;19.40;99.90
51733;DHT22;39139;53.144;6.244;2022-08-30T08:55:43;19.60;99.90
51733;DHT22;39139;53.144;6.244;2022-08-30T09:00:48;20.70;99.90
51733;DHT22;39139;53.144;6.244;2022-08-30T09:03:14;20.20;99.90
51733;DHT22;39139;53.144;6.244;2022-08-30T09:05:42;20.30;99.90
51733;DHT22;39139;53.144;6.244;2022-08-30T09:08:11;20.30;99.90
51733;DHT22;39139;53.144;6.244;2022-08-30T09:10:40;20.60;99.90
51733;DHT22;39139;53.144;6.244;2022-08-30T09:13:06;21.00;99.90
51733;DHT22;39139;53.144;6.244;2022-08-30T09:15:33;21.30;99.90
51733;DHT22;39139;53.144;6.244;2022-08-30T09:18:07;21.30;99.90
51733;DHT22;39139;53.144;6.244;2022-08-30T09:20:39;21.60;99.90
51733;DHT22;39139;53.144;6.244;2022-08-30T09:26:05;22.20;99.90
51733;DHT22;39139;53.144;6.244;2022-08-30T09:28:46;22.30;99.90
51733;DHT22;39139;53.144;6.244;2022-08-30T09:31:26;22.80;99.90
51733;DHT22;39139;53.144;6.244;2022-08-30T09:34:07;22.90;99.90
51733;DHT22;39139;53.144;6.244;2022-08-30T09:36:34;22.50;99.90
51733;DHT22;39139;53.144;6.244;2022-08-30T09:39:19;22.80;99.90
51733;DHT22;39139;53.144;6.244;2022-08-30T09:41:48;22.90;99.90
51733;DHT22;39139;53.144;6.244;2022-08-30T09:44:19;23.30;99.90
51733;DHT22;39139;53.144;6.244;2022-08-30T09:46:51;23.20;99.90
51733;DHT22;39139;53.144;6.244;2022-08-30T09:49:28;23.20;99.90
51733;DHT22;39139;53.144;6.244;2022-08-30T10:10:18;22.60;99.90
51733;DHT22;39139;53.144;6.244;2022-08-30T10:15:31;22.70;99.90
51733;DHT22;39139;53.144;6.244;2022-08-30T10:18:19;22.70;99.90
51733;DHT22;39139;53.144;6.244;2022-08-30T10:23:37;22.50;99.90
51733;DHT22;39139;53.144;6.244;2022-08-30T10:28:49;22.60;99.90
51733;DHT22;39139;53.144;6.244;2022-08-30T10:31:40;22.70;99.90
51733;DHT22;39139;53.144;6.244;2022-08-30T10:34:23;22.80;99.90
51733;DHT22;39139;53.144;6.244;2022-08-30T10:36:55;22.90;99.90
51733;DHT22;39139;53.144;6.244;2022-08-30T10:39:25;23.00;99.90
51733;DHT22;39139;53.144;6.244;2022-08-30T10:42:02;23.20;99.90
51733;DHT22;39139;53.144;6.244;2022-08-30T10:44:33;23.20;99.90
51733;DHT22;39139;53.144;6.244;2022-08-30T10:49:56;23.30;99.90
51733;DHT22;39139;53.144;6.244;2022-08-30T10:52:48;23.30;99.90
51733;DHT22;39139;53.144;6.244;2022-08-30T10:55:40;23.20;99.90
51733;DHT22;39139;53.144;6.244;2022-08-30T10:58:11;23.30;99.90
51733;DHT22;39139;53.144;6.244;2022-08-30T11:00:53;23.20;99.90
51733;DHT22;39139;53.144;6.244;2022-08-30T11:13:56;23.20;99.90
51733;DHT22;39139;53.144;6.244;2022-08-30T11:16:36;23.70;99.90
51733;DHT22;39139;53.144;6.244;2022-08-30T11:19:27;23.20;99.90
51733;DHT22;39139;53.144;6.244;2022-08-30T11:22:11;23.10;99.90
51733;DHT22;39139;53.144;6.244;2022-08-30T11:25:01;23.10;99.90
51733;DHT22;39139;53.144;6.244;2022-08-30T11:27:48;23.00;99.90
51733;DHT22;39139;53.144;6.244;2022-08-30T11:35:44;23.20;99.90
51733;DHT22;39139;53.144;6.244;2022-08-30T11:38:16;23.20;99.90
51733;DHT22;39139;53.144;6.244;2022-08-30T11:43:49;23.30;99.90
51733;DHT22;39139;53.144;6.244;2022-08-30T12:00:38;23.20;99.90
51733;DHT22;39139;53.144;6.244;2022-08-30T12:13:51;23.20;99.90
51733;DHT22;39139;53.144;6.244;2022-08-30T12:16:22;23.20;99.90
51733;DHT22;39139;53.144;6.244;2022-08-30T12:18:54;23.40;99.90
51733;DHT22;39139;53.144;6.244;2022-08-30T12:21:35;23.40;99.90
51733;DHT22;39139;53.144;6.244;2022-08-30T12:24:25;23.40;99.90
51733;DHT22;39139;53.144;6.244;2022-08-30T12:26:52;23.30;99.90
51733;DHT22;39139;53.144;6.244;2022-08-30T12:29:27;23.30;99.90
51733;DHT22;39139;53.144;6.244;2022-08-30T12:37:07;23.50;99.90
51733;DHT22;39139;53.144;6.244;2022-08-30T12:39:41;23.60;99.90
51733;DHT22;39139;53.144;6.244;2022-08-30T12:42:19;23.80;99.90
51733;DHT22;39139;53.144;6.244;2022-08-30T12:44:46;23.70;99.90
51733;DHT22;39139;53.144;6.244;2022-08-30T12:47:15;23.60;99.90
51733;DHT22;39139;53.144;6.244;2022-08-30T12:49:42;23.70;99.90
51733;DHT22;39139;53.144;6.244;2022-08-30T12:54:55;23.80;99.90
51733;DHT22;39139;53.144;6.244;2022-08-30T12:57:39;23.90;99.90
51733;DHT22;39139;53.144;6.244;2022-08-30T13:00:08;24.00;99.90
51733;DHT22;39139;53.144;6.244;2022-08-30T13:02:46;24.20;99.90
51733;DHT22;39139;53.144;6.244;2022-08-30T13:05:48;24.20;99.90
51733;DHT22;39139;53.144;6.244;2022-08-30T13:11:14;24.20;99.90
51733;DHT22;39139;53.144;6.244;2022-08-30T13:13:51;24.10;99.90
51733;DHT22;39139;53.144;6.244;2022-08-30T13:18:44;23.80;99.90
51733;DHT22;39139;53.144;6.244;2022-08-30T13:21:28;24.10;99.90
51733;DHT22;39139;53.144;6.244;2022-08-30T13:24:07;24.10;99.90
51733;DHT22;39139;53.144;6.244;2022-08-30T13:26:37;24.30;99.90
51733;DHT22;39139;53.144;6.244;2022-08-30T13:29:09;24.40;99.90
51733;DHT22;39139;53.144;6.244;2022-08-30T13:31:38;24.50;99.90
51733;DHT22;39139;53.144;6.244;2022-08-30T13:34:03;24.80;99.90
51733;DHT22;39139;53.144;6.244;2022-08-30T13:36:32;24.50;99.90
51733;DHT22;39139;53.144;6.244;2022-08-30T13:38:59;24.60;99.90
51733;DHT22;39139;53.144;6.244;2022-08-30T13:41:26;24.60;99.90
51733;DHT22;39139;53.144;6.244;2022-08-30T13:43:52;24.70;99.90
51733;DHT22;39139;53.144;6.244;2022-08-30T13:46:18;24.80;99.90
51733;DHT22;39139;53.144;6.244;2022-08-30T13:48:44;24.90;99.90
51733;DHT22;39139;53.144;6.244;2022-08-30T13:51:10;24.90;99.90
51733;DHT22;39139;53.144;6.244;2022-08-30T13:53:36;25.00;99.90
51733;DHT22;39139;53.144;6.244;2022-08-30T13:56:03;24.70;99.90
51733;DHT22;39139;53.144;6.244;2022-08-30T13:58:29;24.50;99.90
51733;DHT22;39139;53.144;6.244;2022-08-30T14:00:56;24.60;99.90
51733;DHT22;39139;53.144;6.244;2022-08-30T14:03:22;24.60;99.90
51733;DHT22;39139;53.144;6.244;2022-08-30T14:05:48;24.50;99.90
51733;DHT22;39139;53.144;6.244;2022-08-30T14:08:16;24.40;99.90
51733;DHT22;39139;53.144;6.244;2022-08-30T14:10:42;24.10;99.90
51733;DHT22;39139;53.144;6.244;2022-08-30T14:13:08;23.90;99.90
51733;DHT22;39139;53.144;6.244;2022-08-30T14:15:36;23.70;99.90
51733;DHT22;39139;53.144;6.244;2022-08-30T14:18:03;23.70;99.90
51733;DHT22;39139;53.144;6.244;2022-08-30T14:20:29;23.70;99.90
51733;DHT22;39139;53.144;6.244;2022-08-30T14:22:54;23.60;99.90
51733;DHT22;39139;53.144;6.244;2022-08-30T14:25:20;23.60;99.90
51733;DHT22;39139;53.144;6.244;2022-08-30T14:27:46;23.60;99.90
51733;DHT22;39139;53.144;6.244;2022-08-30T14:30:12;23.70;99.90
51733;DHT22;39139;53.144;6.244;2022-08-30T14:32:37;23.50;99.90
51733;DHT22;39139;53.144;6.244;2022-08-30T14:35:03;23.50;99.90
51733;DHT22;39139;53.144;6.244;2022-08-30T14:37:29;23.40;99.90
51733;DHT22;39139;53.144;6.244;2022-08-30T14:39:55;23.40;99.90
51733;DHT22;39139;53.144;6.244;2022-08-30T14:42:20;23.30;99.90
51733;DHT22;39139;53.144;6.244;2022-08-30T14:44:46;23.20;99.90
51733;DHT22;39139;53.144;6.244;2022-08-30T14:47:12;23.20;99.90
51733;DHT22;39139;53.144;6.244;2022-08-30T14:49:37;23.00;99.90
51733;DHT22;39139;53.144;6.244;2022-08-30T14:52:03;23.00;99.90
51733;DHT22;39139;53.144;6.244;2022-08-30T14:54:30;22.90;99.90
51733;DHT22;39139;53.144;6.244;2022-08-30T14:56:56;22.80;99.90
51733;DHT22;39139;53.144;6.244;2022-08-30T14:59:23;22.70;99.90
51733;DHT22;39139;53.144;6.244;2022-08-30T15:01:49;22.70;99.90
51733;DHT22;39139;53.144;6.244;2022-08-30T15:04:15;22.60;99.90
51733;DHT22;39139;53.144;6.244;2022-08-30T15:06:46;22.60;99.90
51733;DHT22;39139;53.144;6.244;2022-08-30T15:09:16;22.40;99.90
51733;DHT22;39139;53.144;6.244;2022-08-30T15:11:43;22.50;99.90
51733;DHT22;39139;53.144;6.244;2022-08-30T15:14:09;22.30;99.90
51733;DHT22;39139;53.144;6.244;2022-08-30T15:16:36;22.30;99.90
51733;DHT22;39139;53.144;6.244;2022-08-30T15:19:07;22.20;99.90
51733;DHT22;39139;53.144;6.244;2022-08-30T15:21:36;22.30;99.90
51733;DHT22;39139;53.144;6.244;2022-08-30T15:24:03;22.90;99.90
51733;DHT22;39139;53.144;6.244;2022-08-30T15:26:29;22.30;99.90
51733;DHT22;39139;53.144;6.244;2022-08-30T15:28:56;22.20;99.90
51733;DHT22;39139;53.144;6.244;2022-08-30T15:31:24;22.10;99.90
51733;DHT22;39139;53.144;6.244;2022-08-30T15:33:52;22.10;99.90
51733;DHT22;39139;53.144;6.244;2022-08-30T15:36:18;22.10;99.90
51733;DHT22;39139;53.144;6.244;2022-08-30T15:38:44;22.00;99.90
51733;DHT22;39139;53.144;6.244;2022-08-30T15:41:11;22.00;99.90
51733;DHT22;39139;53.144;6.244;2022-08-30T15:43:38;21.90;99.90
51733;DHT22;39139;53.144;6.244;2022-08-30T15:46:18;22.10;99.90
51733;DHT22;39139;53.144;6.244;2022-08-30T15:48:45;22.00;99.90
51733;DHT22;39139;53.144;6.244;2022-08-30T15:51:11;21.90;99.90
51733;DHT22;39139;53.144;6.244;2022-08-30T15:53:37;21.80;99.90
51733;DHT22;39139;53.144;6.244;2022-08-30T15:56:03;22.10;99.90
51733;DHT22;39139;53.144;6.244;2022-08-30T15:58:29;21.80;99.90
51733;DHT22;39139;53.144;6.244;2022-08-30T16:00:55;21.70;99.90
51733;DHT22;39139;53.144;6.244;2022-08-30T16:03:20;21.60;99.90
51733;DHT22;39139;53.144;6.244;2022-08-30T16:05:46;21.60;99.90
51733;DHT22;39139;53.144;6.244;2022-08-30T16:08:11;21.60;99.90
51733;DHT22;39139;53.144;6.244;2022-08-30T16:10:40;21.60;99.90
51733;DHT22;39139;53.144;6.244;2022-08-30T16:13:06;21.50;99.90
51733;DHT22;39139;53.144;6.244;2022-08-30T16:15:32;21.60;99.90
51733;DHT22;39139;53.144;6.244;2022-08-30T16:17:58;21.40;99.90
51733;DHT22;39139;53.144;6.244;2022-08-30T16:20:23;21.40;99.90
51733;DHT22;39139;53.144;6.244;2022-08-30T16:22:49;21.60;99.90
51733;DHT22;39139;53.144;6.244;2022-08-30T16:25:15;21.30;99.90
51733;DHT22;39139;53.144;6.244;2022-08-30T16:27:40;21.20;99.90
51733;DHT22;39139;53.144;6.244;2022-08-30T16:30:10;21.10;99.90
51733;DHT22;39139;53.144;6.244;2022-08-30T16:32:36;21.10;99.90
51733;DHT22;39139;53.144;6.244;2022-08-30T16:35:03;21.00;99.90
51733;DHT22;39139;53.144;6.244;2022-08-30T16:37:29;21.00;99.90
51733;DHT22;39139;53.144;6.244;2022-08-30T16:39:55;20.90;99.90
51733;DHT22;39139;53.144;6.244;2022-08-30T16:42:21;20.90;99.90
51733;DHT22;39139;53.144;6.244;2022-08-30T16:44:47;20.80;99.90
51733;DHT22;39139;53.144;6.244;2022-08-30T16:47:13;20.80;99.90
51733;DHT22;39139;53.144;6.244;2022-08-30T16:49:39;21.40;99.90
51733;DHT22;39139;53.144;6.244;2022-08-30T16:52:04;20.70;99.90
51733;DHT22;39139;53.144;6.244;2022-08-30T16:54:30;20.80;99.90
51733;DHT22;39139;53.144;6.244;2022-08-30T16:56:56;21.30;99.90
51733;DHT22;39139;53.144;6.244;2022-08-30T16:59:22;20.70;99.90
51733;DHT22;39139;53.144;6.244;2022-08-30T17:01:48;20.80;99.90
51733;DHT22;39139;53.144;6.244;2022-08-30T17:04:15;20.40;99.90
51733;DHT22;39139;53.144;6.244;2022-08-30T17:06:41;20.60;99.90
51733;DHT22;39139;53.144;6.244;2022-08-30T17:09:07;21.70;99.90
51733;DHT22;39139;53.144;6.244;2022-08-30T17:11:34;21.30;99.90
51733;DHT22;39139;53.144;6.244;2022-08-30T17:14:01;20.40;99.90
51733;DHT22;39139;53.144;6.244;2022-08-30T17:16:27;20.40;99.90
51733;DHT22;39139;53.144;6.244;2022-08-30T17:18:55;20.40;99.90